メインページ
METAR-TAF:

METAR-TAF

空港 :

ポワントノワール空港

ポワントノワール, コンゴ

緯度: 04-49S, 経度: 011-54E, 海抜: 17m

現時点の気象観測

当レポートは1時間16分前の20:00(UTC)に作成
南西の風 4kt、から西/南西の間で変化する
気温 24°C
湿度 83%
気圧 1016 hPa
視程10km以上
高度1000ftの雲はほとんどない
高度2000ftの千切れ雲あり

METAR: FCPP 192000Z 22004KT 190V250 9999 FEW010 BKN020 24/21 Q1016 NOSIG

時間: 22:16 (21:16 UTC)

予報

当レポートは4時間16分前の17:00(UTC)に作成
予報は19日の 18時(UTC)から 20日の 18時(UTC)まで有効
の風 7kt
視程: 8000m
高度1200ftの雲は散在している
高度2600ftの千切れ雲あり

TAF: FCPP 191700Z 1918/2018 18007KT 8000 SCT012 BKN026

4,000以上の空港の気象観測と天気予報(METAR報とTAF報)

利用可能な観測所は地図上に黄色い丸と赤い丸で示す。

丸の上にカーソルを重ねると観測所名を参照できる。

次にクリックすると気象観測と天気予報を参照できる。

マップの切り替え:黒色「×」印の緑ボタンをクリックして拡大、「-」印の緑ボタンをクリックして縮小、緑色の三角印をクリックして隣りの地図に切り替え


METAR-TAF: